Time;durP1;ratioP1;P1;durP2;ratioP2;P2;SDS_P1;SDS_P2;PMS_P1;PMS_P2;Temp;Humidity;BMP_temperature;BMP_pressure;BME280_temperature;BME280_humidity;BME280_pressure;Samples;Min_cycle;Max_cycle;Signal;HPM_P1;HPM_P2
2021/07/14 00:00:27;;;;;;;20.13;8.40;;;18.10;99.90;;;;;;5014632;28;20376;-77
2021/07/14 00:02:54;;;;;;;15.75;7.50;;;18.10;99.90;;;;;;4980975;28;20026;-78
2021/07/14 00:05:22;;;;;;;16.85;7.18;;;18.10;99.90;;;;;;5010062;28;20034;-76
2021/07/14 00:07:48;;;;;;;17.17;7.72;;;18.10;99.90;;;;;;5017032;28;20022;-74
2021/07/14 00:10:17;;;;;;;16.38;7.10;;;18.10;99.90;;;;;;5017564;28;20076;-75
2021/07/14 00:13:28;;;;;;;16.83;6.72;;;18.10;99.90;;;;;;5017176;28;20518;-74
2021/07/14 00:23:27;;;;;;;17.83;6.13;;;18.00;99.90;;;;;;4997630;28;20100;-75
2021/07/14 00:25:53;;;;;;;21.70;6.88;;;18.00;99.90;;;;;;4979683;28;20061;-73
2021/07/14 00:28:19;;;;;;;21.27;7.93;;;18.00;99.90;;;;;;4979803;28;20057;-73
2021/07/14 00:30:50;;;;;;;20.42;8.40;;;18.00;99.90;;;;;;4999038;28;20085;-74
2021/07/14 00:33:16;;;;;;;26.17;9.07;;;18.00;99.90;;;;;;4997257;28;20384;-75
2021/07/14 00:35:42;;;;;;;23.90;8.68;;;18.00;99.90;;;;;;4979587;28;20026;-75
2021/07/14 00:38:07;;;;;;;19.80;8.25;;;18.00;99.90;;;;;;4979276;28;20037;-74
2021/07/14 00:40:33;;;;;;;20.48;7.63;;;18.00;99.90;;;;;;4998008;28;20522;-74
2021/07/14 00:42:59;;;;;;;24.60;8.00;;;18.00;99.90;;;;;;4979550;28;20027;-74
2021/07/14 00:45:25;;;;;;;23.88;8.93;;;18.00;99.90;;;;;;5004530;28;20487;-77
2021/07/14 00:47:55;;;;;;;23.95;8.88;;;18.00;99.90;;;;;;5016238;28;20038;-77
2021/07/14 00:50:21;;;;;;;19.75;8.88;;;18.00;99.90;;;;;;5012826;28;20518;-76
2021/07/14 00:52:47;;;;;;;24.42;9.18;;;18.10;99.90;;;;;;4997677;28;20032;-75
2021/07/14 00:55:13;;;;;;;22.27;8.63;;;18.10;99.90;;;;;;4979138;28;20030;-73
2021/07/14 00:57:38;;;;;;;23.33;9.98;;;18.00;99.90;;;;;;4996768;28;20022;-77
2021/07/14 01:00:11;;;;;;;23.63;8.32;;;18.00;99.90;;;;;;4996650;28;20038;-77
2021/07/14 01:02:38;;;;;;;21.95;8.40;;;18.00;99.90;;;;;;4996838;28;20025;-74
2021/07/14 01:05:14;;;;;;;21.70;8.30;;;18.00;99.90;;;;;;4997097;28;20087;-76
2021/07/14 01:07:46;;;;;;;22.77;7.97;;;18.00;99.90;;;;;;4996991;28;20076;-75
2021/07/14 01:10:50;;;;;;;18.58;7.60;;;18.00;99.90;;;;;;4984750;28;20084;-75
2021/07/14 01:13:44;;;;;;;28.25;8.73;;;18.00;99.90;;;;;;4999102;28;20062;-74
2021/07/14 01:16:21;;;;;;;18.48;6.55;;;18.00;99.90;;;;;;5016098;28;20026;-73
2021/07/14 01:19:20;;;;;;;17.52;7.13;;;18.00;99.90;;;;;;4998344;28;20030;-73
2021/07/14 01:21:49;;;;;;;25.15;6.72;;;18.00;99.90;;;;;;4997025;28;20404;-76
2021/07/14 01:24:30;;;;;;;18.45;7.82;;;18.00;99.90;;;;;;4995870;28;20026;-72
2021/07/14 01:27:10;;;;;;;20.85;7.65;;;18.00;99.90;;;;;;4996286;28;20034;-73
2021/07/14 01:30:00;;;;;;;21.38;7.85;;;18.00;99.90;;;;;;4996825;28;20015;-74
2021/07/14 01:32:28;;;;;;;21.63;6.88;;;18.00;99.90;;;;;;4978417;28;20395;-73
2021/07/14 01:35:12;;;;;;;17.27;7.13;;;18.00;99.90;;;;;;4996750;28;20022;-76
2021/07/14 01:37:39;;;;;;;16.17;6.78;;;18.00;99.90;;;;;;4995800;28;20066;-76
2021/07/14 01:40:06;;;;;;;19.88;8.13;;;18.10;99.90;;;;;;5004221;28;20022;-75
2021/07/14 01:42:34;;;;;;;18.33;6.85;;;18.00;99.90;;;;;;5014835;28;20036;-74
2021/07/14 01:45:01;;;;;;;21.13;8.53;;;18.00;99.90;;;;;;5036594;23;20128;-74
2021/07/14 01:47:30;;;;;;;25.02;8.38;;;18.00;99.90;;;;;;5035462;28;20026;-73
2021/07/14 01:49:57;;;;;;;19.92;8.65;;;18.00;99.90;;;;;;5034356;28;20017;-74
2021/07/14 01:52:26;;;;;;;18.50;7.40;;;18.00;99.90;;;;;;5017177;28;20017;-73
2021/07/14 01:54:54;;;;;;;18.95;7.60;;;18.00;99.90;;;;;;5034913;28;20017;-75
2021/07/14 01:57:23;;;;;;;20.58;7.30;;;18.00;99.90;;;;;;5034413;28;20558;-76
2021/07/14 01:59:52;;;;;;;14.35;6.65;;;18.00;99.90;;;;;;5034569;28;20033;-75
2021/07/14 02:02:22;;;;;;;17.35;7.60;;;17.90;99.90;;;;;;5034674;28;20116;-76
2021/07/14 02:04:49;;;;;;;21.48;7.03;;;18.00;99.90;;;;;;5009998;28;20025;-74
2021/07/14 02:07:21;;;;;;;15.68;6.95;;;18.00;99.90;;;;;;5014674;28;20105;-74
2021/07/14 02:09:47;;;;;;;15.82;6.60;;;18.10;99.90;;;;;;5019880;28;20479;-76
2021/07/14 02:12:20;;;;;;;16.67;6.72;;;18.00;99.90;;;;;;5016791;28;20017;-73
2021/07/14 02:15:07;;;;;;;23.65;7.82;;;18.00;99.90;;;;;;5029422;28;20021;-75
2021/07/14 02:17:38;;;;;;;20.50;7.60;;;18.10;99.90;;;;;;4996377;28;20089;-74
2021/07/14 02:20:23;;;;;;;21.42;7.28;;;18.10;99.90;;;;;;5022041;28;20034;-76
2021/07/14 02:22:50;;;;;;;21.50;8.60;;;18.00;99.90;;;;;;5014711;28;20483;-77
2021/07/14 02:25:16;;;;;;;17.70;6.28;;;18.10;99.90;;;;;;5014580;28;20498;-76
2021/07/14 02:27:42;;;;;;;15.70;6.55;;;18.00;99.90;;;;;;5014291;28;20036;-77
2021/07/14 02:30:16;;;;;;;18.50;7.32;;;18.00;99.90;;;;;;5017860;28;20104;-77
2021/07/14 02:32:43;;;;;;;17.02;7.63;;;18.00;99.90;;;;;;5014204;28;20072;-77
2021/07/14 02:35:09;;;;;;;19.05;7.78;;;18.00;99.90;;;;;;4996581;28;20037;-76
2021/07/14 02:37:58;;;;;;;16.67;7.53;;;18.00;99.90;;;;;;4996619;28;20114;-76
2021/07/14 02:40:32;;;;;;;23.38;8.45;;;18.00;99.90;;;;;;5013942;28;20030;-77
2021/07/14 02:43:02;;;;;;;20.05;7.55;;;18.10;99.90;;;;;;4994699;28;20030;-76
2021/07/14 02:45:32;;;;;;;20.58;7.72;;;18.10;99.90;;;;;;4993345;28;20061;-77
2021/07/14 02:48:00;;;;;;;21.85;8.68;;;18.10;99.90;;;;;;4977331;28;20435;-79
2021/07/14 02:50:29;;;;;;;20.25;7.97;;;18.00;99.90;;;;;;5003323;28;20032;-76
2021/07/14 02:53:00;;;;;;;25.08;8.18;;;18.60;99.90;;;;;;5033715;28;20025;-77
2021/07/14 02:55:29;;;;;;;26.90;8.93;;;18.10;99.90;;;;;;5020571;28;20497;-74
2021/07/14 02:57:58;;;;;;;18.00;8.00;;;18.10;99.90;;;;;;5013838;28;20026;-74
2021/07/14 03:00:25;;;;;;;25.73;9.80;;;18.10;99.90;;;;;;5029637;23;20056;-74
2021/07/14 03:02:51;;;;;;;22.48;8.20;;;18.10;99.90;;;;;;5034095;28;20474;-76
2021/07/14 03:05:18;;;;;;;18.65;8.52;;;18.10;99.90;;;;;;5032109;28;20503;-74
2021/07/14 03:07:46;;;;;;;16.48;7.43;;;18.10;99.90;;;;;;5015378;28;20030;-73
2021/07/14 03:10:21;;;;;;;20.33;8.30;;;18.10;99.90;;;;;;5033768;28;20101;-76
2021/07/14 03:12:50;;;;;;;26.30;8.93;;;18.10;99.90;;;;;;5016521;28;20026;-76
2021/07/14 03:15:17;;;;;;;;;;;18.10;99.90;;;;;;5026358;28;20024;-75
2021/07/14 03:17:44;;;;;;;16.63;7.05;;;18.00;99.90;;;;;;5019928;28;19916;-74
2021/07/14 03:20:13;;;;;;;13.87;7.00;;;18.00;99.90;;;;;;5033092;28;20032;-72
2021/07/14 04:06:45;;;;;;;12.23;5.57;;;18.00;99.90;;;;;;5915984;22;20064;-76
2021/07/14 04:09:17;;;;;;;11.55;4.60;;;18.30;99.90;;;;;;5012673;28;20065;-76
2021/07/14 04:11:44;;;;;;;12.73;5.72;;;18.00;99.90;;;;;;5012821;28;20426;-76
2021/07/14 04:14:09;;;;;;;11.45;4.63;;;18.00;99.90;;;;;;4996895;28;20494;-76
2021/07/14 04:16:35;;;;;;;12.25;5.05;;;18.00;99.90;;;;;;5033040;28;20026;-79
2021/07/14 04:19:00;;;;;;;12.65;4.93;;;17.90;99.90;;;;;;5035972;28;20029;-78
2021/07/14 04:21:27;;;;;;;14.45;5.38;;;18.00;99.90;;;;;;5036469;28;20025;-77
2021/07/14 04:23:55;;;;;;;11.43;4.60;;;18.00;99.90;;;;;;5038906;28;20501;-79
2021/07/14 04:26:21;;;;;;;15.88;5.47;;;18.00;99.90;;;;;;4999186;28;20037;-79
2021/07/14 04:28:47;;;;;;;9.85;4.30;;;18.00;99.90;;;;;;4981706;28;20387;-79
2021/07/14 04:31:13;;;;;;;12.35;5.35;;;18.00;99.90;;;;;;4999941;28;20022;-79
2021/07/14 04:33:41;;;;;;;14.60;5.65;;;18.00;99.90;;;;;;5018741;28;20040;-79
2021/07/14 04:36:10;;;;;;;11.60;4.60;;;18.00;99.90;;;;;;5035360;28;20018;-76
2021/07/14 04:38:36;;;;;;;11.52;5.40;;;18.00;99.90;;;;;;5036076;28;20533;-75
2021/07/14 04:41:03;;;;;;;11.75;5.18;;;18.00;99.90;;;;;;5035890;28;20060;-75
2021/07/14 04:43:29;;;;;;;11.70;4.95;;;18.00;99.90;;;;;;5036135;28;20091;-78
2021/07/14 04:45:54;;;;;;;9.95;4.55;;;18.10;99.90;;;;;;5018610;28;20018;-78
2021/07/14 04:48:20;;;;;;;9.52;4.47;;;18.00;99.90;;;;;;5016523;28;20504;-78
2021/07/14 04:50:45;;;;;;;9.50;4.38;;;18.10;99.90;;;;;;5016638;28;20014;-78
2021/07/14 04:53:12;;;;;;;9.82;4.78;;;18.00;99.90;;;;;;5017473;28;20065;-78
2021/07/14 04:55:38;;;;;;;9.02;4.80;;;18.00;99.90;;;;;;5018575;28;20033;-78
2021/07/14 04:58:05;;;;;;;8.93;3.83;;;18.00;99.90;;;;;;5019111;28;20028;-78
2021/07/14 05:00:30;;;;;;;9.65;4.45;;;18.00;99.90;;;;;;5019976;28;20103;-78
2021/07/14 05:02:56;;;;;;;12.23;4.40;;;18.00;99.90;;;;;;4998901;28;20030;-77
2021/07/14 05:05:22;;;;;;;7.40;3.40;;;18.10;99.90;;;;;;5011554;28;20026;-77
2021/07/14 05:07:49;;;;;;;10.27;4.07;;;18.10;99.90;;;;;;5036113;28;20367;-77
2021/07/14 05:10:16;;;;;;;7.13;3.13;;;18.10;99.90;;;;;;5017844;28;20027;-77
2021/07/14 05:12:42;;;;;;;6.95;3.40;;;18.10;99.90;;;;;;5035328;28;20025;-77
2021/07/14 05:15:09;;;;;;;8.10;3.45;;;18.20;99.90;;;;;;5006667;28;20021;-77
2021/07/14 05:17:35;;;;;;;8.93;3.67;;;18.20;99.90;;;;;;4997678;28;20057;-77
2021/07/14 05:20:01;;;;;;;7.90;3.88;;;18.20;99.90;;;;;;5016629;28;20026;-76
2021/07/14 05:22:26;;;;;;;13.30;4.82;;;18.20;99.90;;;;;;5015775;28;20097;-75
2021/07/14 05:24:52;;;;;;;8.15;3.63;;;18.20;99.90;;;;;;5024131;28;20111;-75
2021/07/14 05:27:18;;;;;;;8.32;3.70;;;18.20;99.90;;;;;;5029730;28;20099;-75
2021/07/14 05:29:44;;;;;;;7.80;3.83;;;18.20;99.90;;;;;;4997585;28;20026;-75
2021/07/14 05:32:09;;;;;;;11.10;3.83;;;18.20;99.90;;;;;;5018925;28;20383;-76
2021/07/14 05:34:35;;;;;;;9.50;3.60;;;18.20;99.90;;;;;;5017138;28;20033;-75
2021/07/14 05:37:01;;;;;;;7.15;3.70;;;18.20;99.90;;;;;;5035016;28;20390;-74
2021/07/14 05:39:26;;;;;;;8.80;4.03;;;18.20;99.90;;;;;;5017677;28;20017;-74
2021/07/14 05:41:52;;;;;;;11.10;3.97;;;18.30;99.90;;;;;;5016567;28;20029;-79
2021/07/14 05:44:17;;;;;;;9.20;4.30;;;18.30;99.90;;;;;;5021210;28;20462;-78
2021/07/14 05:46:44;;;;;;;8.95;4.07;;;18.30;99.90;;;;;;5034151;28;20018;-77
2021/07/14 05:49:10;;;;;;;8.18;3.38;;;18.30;99.90;;;;;;5032837;28;20072;-78
2021/07/14 05:51:36;;;;;;;8.20;4.90;;;18.30;99.90;;;;;;4997989;28;20077;-78
2021/07/14 05:54:02;;;;;;;13.75;5.28;;;18.30;99.90;;;;;;4998630;28;20037;-77
2021/07/14 05:56:28;;;;;;;11.77;5.90;;;18.40;99.90;;;;;;5015245;28;20061;-77
2021/07/14 05:58:54;;;;;;;11.45;5.28;;;18.40;99.90;;;;;;5014200;28;20021;-77
2021/07/14 06:01:20;;;;;;;12.80;5.65;;;18.40;99.90;;;;;;5018866;28;20101;-77
2021/07/14 06:03:47;;;;;;;12.77;5.68;;;18.40;99.90;;;;;;5027101;28;20056;-78
2021/07/14 06:06:13;;;;;;;15.60;6.22;;;18.40;99.90;;;;;;5005210;28;20026;-78
2021/07/14 06:08:39;;;;;;;16.05;6.38;;;18.40;99.90;;;;;;5016677;28;20044;-77
2021/07/14 06:11:06;;;;;;;13.57;6.45;;;18.40;99.90;;;;;;5012805;28;20042;-77
2021/07/14 06:13:32;;;;;;;14.65;6.10;;;18.40;99.90;;;;;;4997839;28;20020;-77
2021/07/14 06:15:57;;;;;;;14.23;6.22;;;18.40;99.90;;;;;;5002493;28;20084;-77
2021/07/14 06:18:23;;;;;;;17.92;6.15;;;18.40;99.90;;;;;;5015269;28;20033;-77
2021/07/14 06:20:49;;;;;;;13.32;5.82;;;18.40;99.90;;;;;;4997872;28;20474;-76
2021/07/14 06:23:15;;;;;;;12.60;6.05;;;;;;;;;;5014420;28;20025;-76
2021/07/14 06:25:40;;;;;;;13.30;5.55;;;18.40;99.90;;;;;;5014545;28;20037;-77
2021/07/14 06:28:07;;;;;;;14.73;7.45;;;18.40;99.90;;;;;;4996651;28;20025;-77
2021/07/14 06:30:33;;;;;;;16.40;6.85;;;19.20;99.90;;;;;;5010195;28;20021;-77
2021/07/14 06:32:59;;;;;;;16.88;7.18;;;18.30;99.90;;;;;;5032668;28;20371;-77
2021/07/14 06:35:25;;;;;;;21.85;9.48;;;18.30;99.90;;;;;;5034896;28;20025;-78
2021/07/14 06:37:51;;;;;;;24.50;8.60;;;18.40;99.90;;;;;;5017482;28;20022;-77
2021/07/14 06:40:17;;;;;;;23.70;8.93;;;18.20;99.90;;;;;;5022996;28;20124;-75
2021/07/14 06:42:44;;;;;;;21.88;8.85;;;18.20;99.90;;;;;;5014141;28;20498;-76
2021/07/14 06:45:11;;;;;;;17.20;7.60;;;18.10;99.90;;;;;;5015003;28;20045;-78
2021/07/14 06:47:38;;;;;;;24.77;9.13;;;18.20;99.90;;;;;;4995384;28;20041;-78
2021/07/14 06:50:13;;;;;;;18.98;8.02;;;18.20;99.90;;;;;;4997365;28;20025;-78
2021/07/14 06:52:40;;;;;;;23.92;8.82;;;18.20;99.90;;;;;;5035223;28;20022;-78
2021/07/14 06:55:08;;;;;;;23.33;9.80;;;18.70;99.90;;;;;;5034121;28;20026;-74
2021/07/14 06:57:33;;;;;;;18.48;7.32;;;18.30;99.90;;;;;;5033445;28;20375;-74
2021/07/14 06:59:59;;;;;;;16.45;7.68;;;18.50;99.90;;;;;;5033343;28;20072;-75
2021/07/14 07:02:25;;;;;;;19.15;7.53;;;18.60;99.90;;;;;;5015757;28;20048;-75
2021/07/14 07:04:51;;;;;;;19.30;7.63;;;18.70;99.90;;;;;;5033573;28;20117;-75
2021/07/14 07:07:17;;;;;;;15.30;6.75;;;18.80;99.90;;;;;;5033006;28;20029;-75
2021/07/14 07:09:44;;;;;;;14.80;6.50;;;18.90;99.90;;;;;;5033201;28;20029;-75
2021/07/14 07:12:10;;;;;;;14.25;5.68;;;19.00;99.90;;;;;;5033182;28;20025;-75
2021/07/14 07:14:35;;;;;;;12.98;5.97;;;19.10;99.90;;;;;;5033339;28;20028;-75
2021/07/14 07:17:01;;;;;;;11.50;5.78;;;19.20;99.90;;;;;;5033187;28;20383;-75
2021/07/14 07:19:27;;;;;;;13.05;6.30;;;19.20;99.90;;;;;;5033265;28;20026;-75
2021/07/14 07:21:52;;;;;;;12.85;6.43;;;19.20;99.90;;;;;;5033586;28;20076;-75
2021/07/14 07:24:18;;;;;;;13.30;5.60;;;19.30;99.90;;;;;;5015369;28;20091;-75
2021/07/14 07:26:46;;;;;;;12.75;6.00;;;19.30;99.90;;;;;;5033000;28;20471;-76
2021/07/14 07:29:12;;;;;;;13.20;5.97;;;19.30;99.90;;;;;;5032799;28;20026;-75
2021/07/14 07:31:38;;;;;;;15.88;6.10;;;19.40;99.90;;;;;;5015422;28;20010;-75
2021/07/14 07:34:04;;;;;;;12.02;4.75;;;19.50;99.90;;;;;;5015492;28;20083;-75
2021/07/14 07:36:29;;;;;;;8.10;4.05;;;19.60;99.90;;;;;;5010756;28;20025;-75
2021/07/14 07:38:55;;;;;;;13.15;5.90;;;19.80;99.90;;;;;;5013274;28;20030;-75
2021/07/14 07:41:24;;;;;;;13.98;5.00;;;19.90;99.90;;;;;;5030078;28;20029;-75
2021/07/14 07:43:51;;;;;;;8.82;4.45;;;19.90;99.90;;;;;;4996433;28;20022;-76
2021/07/14 07:46:17;;;;;;;13.48;5.38;;;19.80;99.90;;;;;;5013470;28;20087;-75
2021/07/14 07:48:43;;;;;;;11.48;5.25;;;19.80;99.90;;;;;;5013202;28;20109;-75
2021/07/14 07:51:09;;;;;;;11.77;4.97;;;19.70;99.90;;;;;;5013219;28;20032;-75
2021/07/14 07:53:34;;;;;;;12.77;5.80;;;19.70;99.90;;;;;;5007864;28;20108;-75
2021/07/14 07:56:00;;;;;;;11.35;4.93;;;19.60;99.90;;;;;;5036599;28;20028;-75
2021/07/14 07:58:26;;;;;;;12.15;5.28;;;19.50;99.90;;;;;;5036438;28;20029;-75
2021/07/14 08:00:53;;;;;;;11.20;5.82;;;19.40;99.90;;;;;;5037457;28;20033;-75
2021/07/14 08:03:19;;;;;;;13.90;5.70;;;19.40;99.90;;;;;;5003298;28;20029;-76
2021/07/14 08:05:45;;;;;;;13.98;6.20;;;19.40;99.90;;;;;;4999834;28;20088;-76
2021/07/14 08:08:11;;;;;;;17.95;6.30;;;19.30;99.90;;;;;;5017447;28;20029;-75
2021/07/14 08:10:37;;;;;;;11.25;5.55;;;19.20;99.90;;;;;;5017288;28;20105;-75
2021/07/14 08:13:02;;;;;;;12.27;5.38;;;19.10;99.90;;;;;;5017810;28;20478;-76
2021/07/14 08:15:28;;;;;;;11.18;5.63;;;19.00;99.90;;;;;;5017191;28;20411;-75
2021/07/14 08:17:55;;;;;;;16.15;6.40;;;19.00;99.90;;;;;;5017007;28;20382;-75
2021/07/14 08:20:21;;;;;;;14.55;6.38;;;19.00;99.90;;;;;;5016987;28;20128;-75
2021/07/14 08:22:46;;;;;;;15.05;6.30;;;19.10;99.90;;;;;;5013927;28;20059;-75
2021/07/14 08:25:13;;;;;;;13.77;6.43;;;19.10;99.90;;;;;;5036877;28;20021;-76
2021/07/14 08:27:42;;;;;;;16.63;5.63;;;19.10;99.90;;;;;;5005816;28;20477;-75
2021/07/14 08:30:10;;;;;;;15.40;6.18;;;19.10;99.90;;;;;;5049276;23;20064;-77
2021/07/14 08:32:35;;;;;;;13.13;5.93;;;19.20;99.90;;;;;;5035372;28;20051;-77
2021/07/14 08:35:01;;;;;;;13.38;5.65;;;19.20;99.90;;;;;;5018195;28;20022;-77
2021/07/14 08:37:28;;;;;;;16.33;6.05;;;19.20;99.90;;;;;;5035480;28;20037;-76
2021/07/14 08:39:58;;;;;;;11.65;4.97;;;19.50;99.90;;;;;;5037498;28;20474;-77
2021/07/14 08:42:25;;;;;;;11.77;4.90;;;19.30;99.90;;;;;;5017156;28;20036;-76
2021/07/14 08:44:51;;;;;;;10.20;5.10;;;19.40;99.90;;;;;;5037171;28;20031;-76
2021/07/14 08:47:18;;;;;;;13.45;5.18;;;19.40;99.90;;;;;;5031867;28;20490;-74
2021/07/14 08:49:46;;;;;;;12.85;5.57;;;19.50;99.90;;;;;;5017988;28;20018;-73
2021/07/14 08:52:13;;;;;;;12.43;5.57;;;19.50;99.90;;;;;;5017961;28;20044;-73
2021/07/14 08:54:43;;;;;;;14.15;5.75;;;19.50;99.90;;;;;;5036029;28;20014;-78
2021/07/14 08:57:17;;;;;;;11.65;4.72;;;19.60;99.90;;;;;;5009731;28;20479;-78
2021/07/14 08:59:45;;;;;;;14.50;5.40;;;19.60;99.90;;;;;;5017771;28;20037;-78
2021/07/14 09:02:12;;;;;;;14.63;6.40;;;19.60;99.90;;;;;;5020406;28;20018;-78
2021/07/14 09:04:39;;;;;;;13.52;5.50;;;19.60;99.90;;;;;;5029866;28;20026;-74
2021/07/14 09:07:07;;;;;;;14.35;5.97;;;19.50;99.90;;;;;;4996731;28;20022;-73
2021/07/14 09:09:34;;;;;;;14.33;5.30;;;19.60;99.90;;;;;;5015428;28;20014;-73
2021/07/14 09:12:01;;;;;;;15.23;6.15;;;19.50;99.90;;;;;;5016492;28;20018;-79
2021/07/14 09:14:42;;;;;;;11.13;5.32;;;19.50;99.90;;;;;;5000349;28;20037;-79
2021/07/14 09:17:19;;;;;;;14.63;5.85;;;19.40;99.90;;;;;;5001723;28;20075;-79
2021/07/14 09:19:46;;;;;;;16.08;5.28;;;19.50;99.90;;;;;;5000808;28;20462;-79
2021/07/14 09:22:39;;;;;;;14.00;4.80;;;19.50;99.90;;;;;;5033812;28;20025;-79
2021/07/14 09:25:17;;;;;;;13.77;5.25;;;19.50;99.90;;;;;;4995127;28;20037;-79
2021/07/14 09:27:54;;;;;;;12.70;4.70;;;19.50;99.90;;;;;;4997620;28;20470;-79
2021/07/14 09:30:21;;;;;;;10.90;4.80;;;19.50;99.90;;;;;;5017906;28;20276;-74
2021/07/14 09:32:58;;;;;;;15.93;5.05;;;19.60;99.90;;;;;;5035273;28;20021;-74
2021/07/14 09:35:41;;;;;;;9.23;4.45;;;19.60;99.90;;;;;;5035024;28;20021;-74
2021/07/14 09:38:22;;;;;;;8.88;3.95;;;19.60;99.90;;;;;;5036011;28;20112;-79
2021/07/14 09:40:52;;;;;;;11.15;3.70;;;19.60;99.90;;;;;;5018545;28;20451;-78
2021/07/14 09:43:32;;;;;;;7.75;4.03;;;19.60;99.90;;;;;;5019825;28;20033;-77
2021/07/14 09:46:03;;;;;;;7.72;3.42;;;19.70;99.90;;;;;;5016263;28;20017;-78
2021/07/14 09:48:40;;;;;;;7.15;3.13;;;19.70;99.90;;;;;;5035686;28;20071;-76
2021/07/14 09:51:11;;;;;;;8.77;2.80;;;19.80;99.90;;;;;;5027280;28;20048;-76
2021/07/14 09:53:42;;;;;;;8.02;2.72;;;19.80;99.90;;;;;;5034599;28;20030;-75
2021/07/14 09:56:12;;;;;;;9.70;3.72;;;19.80;99.90;;;;;;5016827;28;20029;-76
2021/07/14 09:58:37;;;;;;;11.13;3.70;;;19.80;99.90;;;;;;5034382;28;20048;-77
2021/07/14 10:01:05;;;;;;;7.53;3.65;;;19.90;99.90;;;;;;5032801;28;20026;-77
2021/07/14 10:03:32;;;;;;;7.85;3.67;;;19.90;99.90;;;;;;5013998;28;20052;-77
2021/07/14 10:06:08;;;;;;;10.32;3.65;;;19.90;99.90;;;;;;5014788;28;20025;-76
2021/07/14 10:08:42;;;;;;;9.60;3.47;;;19.90;99.90;;;;;;5015596;28;20107;-76
2021/07/14 10:11:22;;;;;;;16.48;5.03;;;20.00;99.90;;;;;;5020289;28;20360;-77
2021/07/14 10:14:07;;;;;;;11.65;4.28;;;19.90;99.90;;;;;;4996812;28;20053;-77
2021/07/14 10:16:38;;;;;;;15.80;5.85;;;19.90;99.90;;;;;;5014240;28;20018;-76
2021/07/14 10:19:10;;;;;;;13.48;5.85;;;20.00;99.90;;;;;;4996338;28;20391;-77
2021/07/14 10:21:43;;;;;;;11.15;5.18;;;20.00;99.90;;;;;;5004444;28;20112;-76
2021/07/14 10:24:11;;;;;;;13.90;5.75;;;20.10;99.90;;;;;;5034002;28;20047;-75
2021/07/14 10:26:38;;;;;;;17.58;6.32;;;20.00;99.90;;;;;;5033893;28;20494;-75
2021/07/14 10:29:06;;;;;;;12.45;4.90;;;20.10;99.90;;;;;;5034061;28;20030;-75
2021/07/14 10:31:32;;;;;;;12.85;4.93;;;20.20;99.90;;;;;;5033963;28;20104;-75
2021/07/14 10:33:58;;;;;;;12.13;4.85;;;20.20;99.90;;;;;;5016151;28;20025;-75
2021/07/14 10:36:30;;;;;;;14.27;5.40;;;20.40;99.90;;;;;;5016015;28;20017;-76
2021/07/14 10:39:02;;;;;;;8.95;3.42;;;20.50;99.90;;;;;;4994469;28;20030;-76
2021/07/14 10:41:29;;;;;;;10.57;3.88;;;20.70;99.90;;;;;;4994461;28;20514;-77
2021/07/14 10:43:56;;;;;;;11.23;4.13;;;20.60;99.90;;;;;;5000826;28;20104;-76
2021/07/14 10:46:25;;;;;;;8.98;3.50;;;20.60;99.90;;;;;;5013871;28;20026;-76
2021/07/14 10:48:55;;;;;;;10.90;4.57;;;20.50;99.90;;;;;;5033410;28;20056;-75
2021/07/14 10:51:23;;;;;;;12.63;4.45;;;20.50;99.90;;;;;;5033661;28;20387;-75
2021/07/14 10:54:02;;;;;;;10.73;4.63;;;20.50;99.90;;;;;;5030785;28;20022;-74
2021/07/14 10:56:45;;;;;;;11.90;4.20;;;20.50;99.90;;;;;;5014044;28;20029;-75
2021/07/14 10:59:12;;;;;;;11.43;3.95;;;20.40;99.90;;;;;;5016190;28;20022;-75
2021/07/14 11:01:49;;;;;;;12.23;4.68;;;20.50;99.90;;;;;;5012371;28;20071;-76
2021/07/14 11:04:27;;;;;;;6.53;3.60;;;20.60;99.90;;;;;;5014681;28;20029;-76
2021/07/14 11:07:03;;;;;;;7.93;3.80;;;20.60;99.90;;;;;;5033563;28;20029;-74
2021/07/14 11:09:39;;;;;;;12.27;4.07;;;20.80;99.90;;;;;;5015662;28;20649;-74
2021/07/14 11:12:11;;;;;;;9.73;3.67;;;21.00;99.90;;;;;;5033945;28;20025;-75
2021/07/14 11:14:41;;;;;;;14.80;4.97;;;21.20;99.90;;;;;;5033716;28;20104;-77
2021/07/14 11:17:08;;;;;;;10.52;4.57;;;21.20;99.90;;;;;;5014963;28;20192;-78
2021/07/14 11:19:46;;;;;;;21.20;5.05;;;21.20;99.90;;;;;;5016082;28;20026;-78
2021/07/14 11:22:12;;;;;;;12.93;4.35;;;21.10;99.90;;;;;;5015995;28;20075;-77
2021/07/14 11:24:51;;;;;;;10.85;3.80;;;21.10;99.90;;;;;;5033114;28;20018;-76
2021/07/14 11:27:22;;;;;;;10.50;4.03;;;21.00;99.90;;;;;;5030626;28;20021;-75
2021/07/14 11:29:56;;;;;;;11.00;3.35;;;21.00;99.90;;;;;;4996800;28;20034;-75
2021/07/14 11:32:33;;;;;;;11.30;4.05;;;21.10;99.90;;;;;;5018351;28;20475;-75
2021/07/14 11:35:04;;;;;;;8.20;3.43;;;21.10;99.90;;;;;;5017289;28;20026;-74
2021/07/14 11:37:31;;;;;;;8.40;3.30;;;21.10;99.90;;;;;;5017061;28;20064;-74
2021/07/14 11:40:20;;;;;;;9.77;3.95;;;21.10;99.90;;;;;;5017209;28;20075;-75
2021/07/14 11:42:55;;;;;;;;;;;21.20;99.90;;;;;;5018529;28;20062;-75
2021/07/14 11:45:35;;;;;;;8.90;3.58;;;21.10;99.90;;;;;;5018199;28;19939;-75
2021/07/14 11:48:04;;;;;;;6.85;3.10;;;21.10;99.90;;;;;;5024216;28;20116;-75
2021/07/14 11:50:54;;;;;;;9.88;4.28;;;21.20;99.90;;;;;;5036700;28;20102;-75
2021/07/14 11:53:31;;;;;;;11.18;3.45;;;21.20;99.90;;;;;;5008524;28;20026;-75
2021/07/14 11:56:17;;;;;;;6.97;2.72;;;21.30;99.90;;;;;;4999400;28;20076;-74
2021/07/14 11:58:49;;;;;;;8.65;3.65;;;21.40;99.90;;;;;;5000309;28;20498;-75
2021/07/14 12:01:17;;;;;;;7.55;2.88;;;21.50;99.90;;;;;;5017007;28;20033;-75
2021/07/14 12:04:01;;;;;;;6.88;2.40;;;21.60;99.90;;;;;;5030026;28;20084;-75
2021/07/14 12:06:45;;;;;;;3.92;2.25;;;21.50;99.90;;;;;;5036772;28;20026;-75
2021/07/14 12:09:13;;;;;;;10.93;2.88;;;21.60;99.90;;;;;;5035943;28;20037;-75
2021/07/14 12:11:42;;;;;;;5.95;1.83;;;21.50;99.90;;;;;;5026786;28;20383;-75
2021/07/14 12:14:28;;;;;;;5.93;2.85;;;21.50;99.90;;;;;;5017927;28;20018;-75
2021/07/14 12:17:00;;;;;;;6.05;2.22;;;21.40;99.90;;;;;;5006155;28;20022;-75
2021/07/14 12:19:32;;;;;;;7.47;2.88;;;21.40;99.90;;;;;;5016464;28;20026;-75
2021/07/14 12:22:06;;;;;;;7.15;3.17;;;21.40;99.90;;;;;;5020488;28;20029;-75
2021/07/14 12:24:35;;;;;;;5.13;2.45;;;21.40;99.90;;;;;;5036702;28;20021;-75
2021/07/14 12:27:03;;;;;;;7.88;2.97;;;21.50;99.90;;;;;;5036344;28;20029;-75
2021/07/14 12:29:30;;;;;;;5.07;2.38;;;21.60;99.90;;;;;;5016258;28;20068;-75
2021/07/14 12:31:58;;;;;;;5.50;2.42;;;21.80;99.90;;;;;;5018508;28;20486;-75
2021/07/14 12:34:25;;;;;;;4.20;2.40;;;21.90;99.90;;;;;;5035622;28;20025;-75
2021/07/14 12:36:52;;;;;;;4.50;2.58;;;22.20;99.90;;;;;;5035841;28;20024;-74
2021/07/14 12:39:26;;;;;;;6.10;2.47;;;22.50;99.90;;;;;;5035908;28;20084;-74
2021/07/14 12:41:57;;;;;;;5.57;2.22;;;22.70;99.90;;;;;;5017130;28;20026;-75
2021/07/14 12:44:23;;;;;;;4.45;2.70;;;22.80;99.90;;;;;;5016034;28;20487;-75
2021/07/14 12:46:49;;;;;;;7.35;2.95;;;23.00;99.90;;;;;;5000026;28;20033;-75
2021/07/14 12:49:24;;;;;;;6.93;3.08;;;22.90;99.90;;;;;;5017873;28;20079;-77
2021/07/14 12:52:00;;;;;;;5.53;2.25;;;22.80;99.90;;;;;;5034371;28;20045;-77
2021/07/14 12:54:25;;;;;;;4.82;2.42;;;22.70;99.90;;;;;;5016374;28;20065;-77
2021/07/14 12:56:51;;;;;;;5.10;2.10;;;22.50;99.90;;;;;;5016858;28;20457;-76
2021/07/14 12:59:16;;;;;;;7.68;2.53;;;22.40;99.90;;;;;;5017080;28;20030;-76
2021/07/14 13:01:46;;;;;;;2.92;2.35;;;22.40;99.90;;;;;;5016585;28;20033;-76
2021/07/14 13:04:15;;;;;;;6.55;2.05;;;22.30;99.90;;;;;;5019966;28;20476;-76
2021/07/14 13:06:41;;;;;;;;;;;22.40;99.90;;;;;;5020148;28;20045;-76
2021/07/14 13:09:09;;;;;;;3.78;2.50;;;22.40;99.90;;;;;;5019262;28;19917;-76
2021/07/14 13:11:36;;;;;;;4.20;2.50;;;22.50;99.90;;;;;;5009347;28;20089;-76
2021/07/14 13:14:03;;;;;;;6.70;2.55;;;22.60;99.90;;;;;;5019975;28;20615;-76
2021/07/14 13:16:31;;;;;;;5.05;2.65;;;22.70;99.90;;;;;;5020124;28;20028;-76
2021/07/14 13:19:00;;;;;;;;;;;22.90;99.90;;;;;;5028722;28;20036;-74
2021/07/14 13:21:26;;;;;;;;;;;23.00;99.90;;;;;;5042163;28;19909;-76
2021/07/14 13:24:02;;;;;;;5.85;2.35;;;23.10;99.90;;;;;;5034535;28;20263;-76
2021/07/14 13:26:28;;;;;;;6.22;2.20;;;23.30;99.90;;;;;;5034213;28;20029;-74
2021/07/14 13:28:53;;;;;;;6.90;2.75;;;23.40;99.90;;;;;;5038636;28;20026;-76
2021/07/14 13:31:27;;;;;;;4.88;2.75;;;23.40;99.90;;;;;;5034779;28;20034;-74
2021/07/14 13:34:02;;;;;;;6.53;2.38;;;23.40;99.90;;;;;;5033626;28;20017;-74
2021/07/14 13:36:34;;;;;;;5.10;2.45;;;23.30;99.90;;;;;;5034979;28;20025;-74
2021/07/14 13:39:14;;;;;;;7.13;3.20;;;23.20;99.90;;;;;;5019595;28;20036;-76
2021/07/14 13:41:40;;;;;;;7.80;3.13;;;23.10;99.90;;;;;;5022325;28;20076;-74
2021/07/14 13:44:08;;;;;;;8.73;3.50;;;23.00;99.90;;;;;;5012991;28;20108;-74